createdAt,value
2019-05-09T00:00:57.926Z,12.41
2019-05-09T00:03:33.515Z,12.39
2019-05-09T00:06:06.522Z,12.45
2019-05-09T00:08:40.025Z,12.41
2019-05-09T00:11:14.771Z,12.43
2019-05-09T00:13:48.253Z,12.42
2019-05-09T00:16:23.501Z,12.43
2019-05-09T00:18:56.841Z,12.42
2019-05-09T00:21:35.039Z,12.39
2019-05-09T00:24:08.556Z,12.41
2019-05-09T00:26:44.194Z,12.43
2019-05-09T00:29:24.377Z,12.42
2019-05-09T00:32:19.465Z,12.42
2019-05-09T00:35:13.955Z,12.19
2019-05-09T00:37:58.170Z,12.41
2019-05-09T00:40:34.002Z,12.41
2019-05-09T00:43:06.716Z,12.40
2019-05-09T00:46:04.104Z,12.36
2019-05-09T00:49:14.154Z,12.41
2019-05-09T00:51:47.565Z,12.42
2019-05-09T00:54:21.001Z,12.43
2019-05-09T00:56:54.775Z,12.42
2019-05-09T00:59:28.140Z,12.45
2019-05-09T01:02:03.974Z,12.44
2019-05-09T01:04:37.091Z,12.42
2019-05-09T01:07:10.587Z,12.43
2019-05-09T01:09:44.029Z,12.41
2019-05-09T01:12:17.572Z,12.39
2019-05-09T01:14:51.055Z,12.40
2019-05-09T01:17:26.023Z,12.39
2019-05-09T01:20:00.218Z,12.38
2019-05-09T01:22:33.784Z,12.38
2019-05-09T01:25:07.545Z,12.38
2019-05-09T01:27:43.909Z,12.36
2019-05-09T01:30:17.733Z,12.37
2019-05-09T01:33:08.637Z,12.37
2019-05-09T01:35:43.398Z,12.38
2019-05-09T01:38:17.079Z,12.30
2019-05-09T01:40:50.552Z,12.30
2019-05-09T01:43:24.510Z,12.27
2019-05-09T01:45:57.952Z,12.26
2019-05-09T01:48:34.121Z,12.22
2019-05-09T01:51:07.270Z,12.20
2019-05-09T01:53:45.612Z,12.20
2019-05-09T01:56:19.007Z,12.15
2019-05-09T01:58:53.813Z,12.12
2019-05-09T02:01:27.528Z,12.14
2019-05-09T02:04:00.954Z,12.14
2019-05-09T02:06:34.367Z,12.10
2019-05-09T02:09:08.942Z,12.09
2019-05-09T02:11:45.332Z,12.05
2019-05-09T02:14:23.984Z,12.05
2019-05-09T02:17:23.222Z,12.03
2019-05-09T02:19:56.785Z,12.01
2019-05-09T02:22:37.802Z,12.00
2019-05-09T02:25:13.639Z,11.98
2019-05-09T02:27:47.204Z,11.97
2019-05-09T02:30:20.997Z,11.93
2019-05-09T02:32:54.823Z,11.95
2019-05-09T02:35:33.189Z,11.92
2019-05-09T02:38:04.326Z,11.93
2019-05-09T02:40:39.379Z,11.90
2019-05-09T02:43:13.153Z,11.89
2019-05-09T02:46:02.176Z,11.90
2019-05-09T02:48:38.402Z,11.90
2019-05-09T02:51:10.769Z,11.92
2019-05-09T02:53:44.574Z,11.86
2019-05-09T02:56:19.193Z,11.88
2019-05-09T02:59:10.120Z,11.87
2019-05-09T03:01:58.293Z,11.82
2019-05-09T03:04:30.306Z,11.80
2019-05-09T03:07:03.841Z,11.77
2019-05-09T03:09:38.831Z,11.74
2019-05-09T03:12:26.554Z,11.77
2019-05-09T03:14:48.783Z,11.78
2019-05-09T03:17:22.400Z,11.75
2019-05-09T03:19:58.531Z,11.74
2019-05-09T03:22:30.946Z,11.70
2019-05-09T03:25:08.788Z,11.73
2019-05-09T03:27:42.601Z,11.72
2019-05-09T03:30:21.017Z,11.73
2019-05-09T03:32:54.594Z,11.72
2019-05-09T03:35:28.012Z,11.70
2019-05-09T03:38:08.111Z,11.71
2019-05-09T03:40:41.777Z,11.72
2019-05-09T03:43:15.543Z,11.69
2019-05-09T03:45:58.568Z,11.70
2019-05-09T03:48:39.404Z,11.67
2019-05-09T03:51:15.603Z,11.63
2019-05-09T03:53:49.064Z,11.64
2019-05-09T03:56:27.370Z,11.66
2019-05-09T03:59:01.503Z,11.65
2019-05-09T04:01:34.902Z,11.64
2019-05-09T04:04:08.947Z,11.61
2019-05-09T04:06:42.565Z,11.63
2019-05-09T04:09:17.998Z,11.65
2019-05-09T04:11:50.884Z,11.60
2019-05-09T04:14:28.069Z,11.62
2019-05-09T04:17:01.314Z,11.58
2019-05-09T04:19:34.766Z,11.60
2019-05-09T04:22:08.640Z,11.56
2019-05-09T04:24:43.066Z,11.56
2019-05-09T04:27:21.105Z,11.55
2019-05-09T04:29:54.662Z,11.56
2019-05-09T04:32:28.130Z,11.58
2019-05-09T04:35:01.604Z,11.59
2019-05-09T04:37:37.891Z,11.60
2019-05-09T04:40:10.313Z,11.60
2019-05-09T04:42:44.483Z,11.61
2019-05-09T04:45:42.650Z,11.58
2019-05-09T04:48:31.856Z,11.58
2019-05-09T04:51:08.128Z,11.57
2019-05-09T04:53:41.888Z,11.58
2019-05-09T04:56:29.333Z,11.60
2019-05-09T04:59:02.794Z,11.58
2019-05-09T05:01:47.766Z,11.60
2019-05-09T05:04:22.141Z,11.62
2019-05-09T05:06:55.588Z,11.63
2019-05-09T05:09:29.187Z,11.64
2019-05-09T05:12:02.690Z,11.61
2019-05-09T05:14:38.240Z,11.64
2019-05-09T05:17:12.385Z,11.67
2019-05-09T05:19:47.621Z,11.68
2019-05-09T05:22:38.671Z,11.67
2019-05-09T05:25:12.278Z,11.74
2019-05-09T05:27:47.529Z,11.77
2019-05-09T05:30:22.266Z,11.79
2019-05-09T05:32:59.564Z,11.79
2019-05-09T05:35:37.528Z,11.85
2019-05-09T05:38:11.571Z,11.85
2019-05-09T05:40:47.636Z,11.88
2019-05-09T05:43:20.191Z,11.93
2019-05-09T05:46:11.566Z,11.95
2019-05-09T05:48:45.409Z,11.94
2019-05-09T05:51:18.832Z,11.99
2019-05-09T05:53:53.727Z,12.04
2019-05-09T05:56:28.006Z,11.97
2019-05-09T05:59:01.666Z,11.98
2019-05-09T06:01:35.330Z,11.98
2019-05-09T06:04:08.839Z,12.03
2019-05-09T06:06:42.381Z,12.06
2019-05-09T06:09:18.158Z,12.06
2019-05-09T06:11:51.343Z,12.05
2019-05-09T06:14:25.299Z,12.04
2019-05-09T06:16:58.963Z,12.04
2019-05-09T06:19:32.770Z,12.05
2019-05-09T06:22:08.149Z,12.10
2019-05-09T06:24:42.276Z,12.10
2019-05-09T06:27:18.238Z,12.11
2019-05-09T06:29:51.864Z,12.16
2019-05-09T06:32:27.827Z,12.06
2019-05-09T06:35:00.842Z,12.13
2019-05-09T06:37:38.240Z,12.14
2019-05-09T06:40:18.367Z,12.14
2019-05-09T06:42:52.184Z,12.15
2019-05-09T06:45:45.009Z,12.12
2019-05-09T06:48:18.481Z,12.13
2019-05-09T06:50:52.023Z,12.18
2019-05-09T06:53:27.256Z,12.17
2019-05-09T06:56:00.762Z,12.13
2019-05-09T06:58:35.281Z,12.12
2019-05-09T07:01:30.507Z,12.12
2019-05-09T07:04:24.888Z,12.08
2019-05-09T07:07:02.768Z,12.09
2019-05-09T07:09:39.509Z,12.06
2019-05-09T07:12:12.995Z,12.08
2019-05-09T07:14:48.738Z,11.99
2019-05-09T07:17:21.565Z,12.00
2019-05-09T07:19:55.052Z,11.99
2019-05-09T07:22:41.001Z,12.01
2019-05-09T07:25:39.279Z,12.02
2019-05-09T07:28:12.672Z,12.05
2019-05-09T07:31:11.410Z,12.23
2019-05-09T07:33:50.516Z,12.48
2019-05-09T07:36:24.964Z,12.41
2019-05-09T07:38:58.429Z,12.34
2019-05-09T07:41:33.689Z,12.28
2019-05-09T07:44:07.622Z,12.26
2019-05-09T07:47:01.730Z,12.25
2019-05-09T07:49:37.584Z,12.22
2019-05-09T07:52:12.400Z,12.17
2019-05-09T07:54:48.185Z,12.13
2019-05-09T07:57:20.892Z,12.12
2019-05-09T07:59:54.308Z,12.10
2019-05-09T08:02:28.362Z,12.12
2019-05-09T08:05:01.742Z,12.03
2019-05-09T08:07:35.228Z,11.97
2019-05-09T08:10:11.354Z,11.93
2019-05-09T08:12:45.169Z,11.85
2019-05-09T08:15:20.217Z,11.85
2019-05-09T08:17:54.252Z,11.79
2019-05-09T08:20:28.078Z,11.66
2019-05-09T08:23:02.436Z,11.61
2019-05-09T08:25:38.290Z,11.61
2019-05-09T08:28:11.205Z,11.65
2019-05-09T08:30:44.537Z,11.57
2019-05-09T08:33:18.469Z,11.55
2019-05-09T08:35:52.802Z,11.50
2019-05-09T08:38:28.235Z,11.53
2019-05-09T08:41:09.827Z,11.42
2019-05-09T08:43:44.099Z,11.38
2019-05-09T08:46:18.105Z,11.34
2019-05-09T08:48:52.379Z,11.31
2019-05-09T08:52:06.304Z,11.32
2019-05-09T08:54:44.993Z,11.23
2019-05-09T08:57:18.436Z,11.09
2019-05-09T08:59:51.843Z,11.08
2019-05-09T09:02:25.345Z,11.02
2019-05-09T09:04:59.027Z,11.02
2019-05-09T09:07:32.603Z,10.93
2019-05-09T09:10:08.466Z,10.91
2019-05-09T09:12:42.275Z,10.88
2019-05-09T09:15:17.944Z,10.80
2019-05-09T09:17:50.941Z,10.78
2019-05-09T09:20:24.294Z,10.73
2019-05-09T09:22:58.368Z,10.81
2019-05-09T09:25:31.959Z,10.75
2019-05-09T09:28:05.441Z,10.79
2019-05-09T09:30:39.124Z,10.73
2019-05-09T09:33:13.954Z,10.75
2019-05-09T09:35:48.960Z,10.78
2019-05-09T09:38:22.595Z,10.82
2019-05-09T09:40:58.019Z,10.85
2019-05-09T09:43:31.169Z,10.89
2019-05-09T09:46:13.365Z,10.85
2019-05-09T09:48:40.869Z,10.97
2019-05-09T09:51:14.393Z,10.97
2019-05-09T09:53:48.984Z,10.94
2019-05-09T09:56:22.761Z,10.94
2019-05-09T09:59:08.240Z,10.96
2019-05-09T10:01:43.095Z,10.89
2019-05-09T10:04:23.858Z,10.89
2019-05-09T10:06:53.519Z,10.86
2019-05-09T10:09:26.886Z,10.88
2019-05-09T10:12:00.830Z,10.96
2019-05-09T10:14:37.404Z,11.04
2019-05-09T10:17:29.363Z,11.10
2019-05-09T10:20:12.570Z,11.10
2019-05-09T10:22:56.831Z,11.13
2019-05-09T10:25:20.859Z,11.26
2019-05-09T10:27:54.168Z,11.26
2019-05-09T10:30:38.055Z,11.29
2019-05-09T10:33:10.670Z,11.27
2019-05-09T10:35:44.757Z,11.27
2019-05-09T10:38:18.691Z,11.28
2019-05-09T10:41:01.169Z,11.26
2019-05-09T10:43:48.759Z,11.34
2019-05-09T10:46:51.633Z,11.41
2019-05-09T10:49:10.571Z,11.44
2019-05-09T10:51:44.642Z,11.45
2019-05-09T10:54:20.326Z,11.47
2019-05-09T10:56:57.961Z,11.45
2019-05-09T10:59:32.326Z,11.46
2019-05-09T11:02:09.491Z,11.53
2019-05-09T11:04:44.257Z,11.61
2019-05-09T11:07:18.179Z,11.59
2019-05-09T11:09:51.798Z,11.61
2019-05-09T11:12:27.415Z,11.63
2019-05-09T11:15:00.201Z,11.65
2019-05-09T11:17:33.700Z,11.64
2019-05-09T11:20:08.760Z,11.64
2019-05-09T11:22:43.901Z,11.62
2019-05-09T11:25:17.271Z,11.59
2019-05-09T11:28:06.814Z,11.67
2019-05-09T11:30:27.964Z,11.74
2019-05-09T11:33:00.853Z,11.78
2019-05-09T11:35:34.226Z,11.70
2019-05-09T11:38:08.359Z,11.71
2019-05-09T11:40:42.042Z,11.72
2019-05-09T11:43:17.939Z,11.73
2019-05-09T11:45:51.482Z,11.79
2019-05-09T11:48:24.990Z,11.75
2019-05-09T11:50:59.036Z,11.80
2019-05-09T11:53:33.441Z,11.84
2019-05-09T11:56:08.242Z,11.89
2019-05-09T11:58:41.779Z,11.86
2019-05-09T12:01:15.207Z,11.81
2019-05-09T12:03:52.082Z,11.77
2019-05-09T12:06:23.418Z,11.82
2019-05-09T12:08:58.808Z,11.88
2019-05-09T12:11:31.787Z,11.93
2019-05-09T12:14:08.724Z,11.94
2019-05-09T12:16:41.011Z,11.92
2019-05-09T12:19:14.407Z,11.99
2019-05-09T12:21:48.574Z,12.05
2019-05-09T12:24:22.159Z,11.97
2019-05-09T12:26:57.544Z,11.99
2019-05-09T12:29:30.428Z,11.94
2019-05-09T12:32:03.865Z,11.97
2019-05-09T12:34:37.258Z,12.03
2019-05-09T12:37:10.705Z,12.03
2019-05-09T12:39:44.121Z,12.13
2019-05-09T12:42:18.555Z,12.15
2019-05-09T12:44:52.381Z,11.99
2019-05-09T12:47:28.873Z,12.01
2019-05-09T12:50:10.744Z,12.03
2019-05-09T12:52:44.129Z,12.11
2019-05-09T12:55:17.989Z,12.01
2019-05-09T12:57:52.227Z,12.26
2019-05-09T13:00:25.687Z,12.31
2019-05-09T13:02:59.507Z,12.33
2019-05-09T13:05:33.293Z,12.43
2019-05-09T13:08:10.244Z,12.55
2019-05-09T13:10:42.220Z,12.61
2019-05-09T13:13:18.394Z,12.71
2019-05-09T13:16:14.293Z,12.71
2019-05-09T13:19:07.726Z,12.70
2019-05-09T13:21:41.228Z,12.69
2019-05-09T13:24:19.515Z,12.73
2019-05-09T13:26:51.935Z,12.75
2019-05-09T13:29:25.734Z,12.76
2019-05-09T13:31:59.116Z,12.77
2019-05-09T13:34:32.638Z,12.82
2019-05-09T13:37:08.834Z,12.76
2019-05-09T13:39:41.265Z,12.81
2019-05-09T13:42:14.908Z,12.91
2019-05-09T13:44:48.436Z,12.98
2019-05-09T13:47:21.922Z,12.98
2019-05-09T13:49:56.065Z,13.03
2019-05-09T13:52:29.996Z,12.96
2019-05-09T13:55:03.513Z,12.95
2019-05-09T13:57:39.756Z,12.99
2019-05-09T14:00:18.479Z,13.03
2019-05-09T14:02:51.987Z,13.04
2019-05-09T14:05:25.707Z,13.05
2019-05-09T14:08:03.381Z,13.06
2019-05-09T14:10:38.703Z,13.11
2019-05-09T14:13:14.029Z,13.19
2019-05-09T14:15:48.909Z,13.15
2019-05-09T14:18:23.754Z,13.16
2019-05-09T14:20:57.493Z,13.18
2019-05-09T14:23:35.710Z,13.19
2019-05-09T14:26:09.125Z,13.15
2019-05-09T14:28:42.003Z,13.16
2019-05-09T14:31:18.382Z,13.15
2019-05-09T14:33:51.391Z,13.13
2019-05-09T14:36:24.509Z,13.16
2019-05-09T14:38:58.161Z,13.12
2019-05-09T14:41:31.373Z,13.10
2019-05-09T14:44:04.627Z,13.12
2019-05-09T14:46:39.221Z,13.18
2019-05-09T14:49:12.546Z,13.13
2019-05-09T14:51:45.781Z,13.16
2019-05-09T14:54:19.029Z,13.21
2019-05-09T14:56:53.075Z,13.24
2019-05-09T14:59:28.662Z,13.21
2019-05-09T15:02:01.359Z,13.14
2019-05-09T15:04:34.582Z,13.13
2019-05-09T15:07:07.932Z,13.17
2019-05-09T15:09:41.318Z,13.24
2019-05-09T15:12:14.699Z,13.26
2019-05-09T15:14:48.161Z,13.31
2019-05-09T15:17:21.517Z,13.33
2019-05-09T15:19:59.652Z,13.37
2019-05-09T15:22:30.013Z,13.33
2019-05-09T15:25:03.670Z,13.37
2019-05-09T15:27:38.559Z,13.38
2019-05-09T15:30:12.610Z,13.36
2019-05-09T15:32:47.416Z,13.35
2019-05-09T15:35:21.228Z,13.39
2019-05-09T15:37:55.693Z,13.34
2019-05-09T15:40:29.183Z,13.31
2019-05-09T15:43:02.664Z,13.28
2019-05-09T15:45:42.832Z,13.26
2019-05-09T15:48:18.126Z,13.28
2019-05-09T15:50:51.276Z,13.28
2019-05-09T15:53:24.670Z,13.31
2019-05-09T15:55:58.768Z,13.29
2019-05-09T15:58:32.474Z,13.31
2019-05-09T16:01:08.222Z,13.30
2019-05-09T16:03:41.551Z,13.30
2019-05-09T16:06:14.928Z,13.28
2019-05-09T16:08:48.315Z,13.29
2019-05-09T16:11:21.676Z,13.30
2019-05-09T16:13:55.245Z,13.31
2019-05-09T16:16:28.820Z,13.30
2019-05-09T16:19:03.247Z,13.28
2019-05-09T16:21:38.271Z,13.28
2019-05-09T16:24:52.490Z,13.20
2019-05-09T16:27:25.860Z,13.16
2019-05-09T16:29:59.367Z,13.11
2019-05-09T16:32:32.682Z,13.17
2019-05-09T16:35:30.423Z,13.18
2019-05-09T16:38:07.922Z,13.18
2019-05-09T16:40:38.976Z,13.12
2019-05-09T16:43:13.900Z,13.14
2019-05-09T16:45:47.810Z,13.12
2019-05-09T16:48:21.486Z,13.13
2019-05-09T16:51:03.189Z,13.13
2019-05-09T16:53:30.052Z,13.13
2019-05-09T16:56:03.902Z,13.10
2019-05-09T16:58:39.219Z,13.08
2019-05-09T17:01:14.967Z,13.11
2019-05-09T17:03:49.171Z,13.07
2019-05-09T17:06:22.789Z,13.04
2019-05-09T17:08:58.500Z,13.06
2019-05-09T17:11:31.982Z,12.99
2019-05-09T17:14:07.976Z,12.96
2019-05-09T17:16:40.424Z,12.98
2019-05-09T17:19:13.961Z,13.02
2019-05-09T17:21:58.801Z,13.01
2019-05-09T17:24:32.187Z,13.02
2019-05-09T17:27:05.523Z,13.03
2019-05-09T17:29:38.610Z,13.06
2019-05-09T17:32:11.866Z,13.02
2019-05-09T17:34:47.476Z,13.02
2019-05-09T17:37:20.111Z,13.03
2019-05-09T17:39:53.462Z,13.04
2019-05-09T17:42:27.725Z,13.01
2019-05-09T17:45:02.345Z,13.01
2019-05-09T17:47:37.747Z,12.96
2019-05-09T17:50:11.365Z,12.95
2019-05-09T17:52:44.858Z,12.93
2019-05-09T17:55:18.430Z,12.91
2019-05-09T17:57:52.335Z,12.89
2019-05-09T18:00:28.007Z,12.89
2019-05-09T18:03:02.691Z,12.90
2019-05-09T18:05:38.840Z,12.88
2019-05-09T18:08:11.744Z,12.84
2019-05-09T18:10:45.282Z,12.83
2019-05-09T18:13:23.782Z,12.85
2019-05-09T18:15:53.703Z,12.79
2019-05-09T18:18:28.418Z,12.83
2019-05-09T18:21:01.999Z,12.84
2019-05-09T18:23:35.381Z,12.87
2019-05-09T18:26:10.755Z,12.86
2019-05-09T18:28:44.164Z,12.83
2019-05-09T18:31:17.456Z,12.87
2019-05-09T18:33:55.368Z,12.81
2019-05-09T18:36:28.756Z,12.79
2019-05-09T18:39:02.232Z,12.75
2019-05-09T18:41:36.860Z,12.73
2019-05-09T18:44:10.570Z,12.73
2019-05-09T18:46:44.078Z,12.76
2019-05-09T18:49:20.951Z,12.78
2019-05-09T18:52:03.778Z,12.79
2019-05-09T18:54:32.561Z,12.84
2019-05-09T18:57:05.926Z,12.83
2019-05-09T18:59:40.005Z,12.79
2019-05-09T19:02:21.319Z,12.76
2019-05-09T19:04:55.663Z,12.75
2019-05-09T19:07:29.516Z,12.75
2019-05-09T19:10:03.124Z,12.71
2019-05-09T19:12:37.794Z,12.71
2019-05-09T19:15:16.272Z,12.67
2019-05-09T19:18:11.987Z,12.63
2019-05-09T19:21:07.707Z,12.62
2019-05-09T19:23:40.820Z,12.64
2019-05-09T19:26:32.126Z,12.61
2019-05-09T19:29:13.063Z,12.53
2019-05-09T19:31:46.273Z,12.30
2019-05-09T19:34:19.424Z,12.46
2019-05-09T19:36:52.572Z,12.40
2019-05-09T19:39:25.975Z,12.36
2019-05-09T19:41:59.196Z,12.38
2019-05-09T19:44:32.233Z,12.40
2019-05-09T19:47:05.361Z,12.42
2019-05-09T19:49:38.446Z,12.39
2019-05-09T19:52:11.580Z,12.32
2019-05-09T19:54:45.908Z,12.30
2019-05-09T19:57:20.298Z,12.26
2019-05-09T19:59:53.432Z,12.26
2019-05-09T20:02:26.505Z,12.22
2019-05-09T20:04:59.646Z,12.23
2019-05-09T20:07:32.973Z,12.22
2019-05-09T20:10:23.865Z,12.21
2019-05-09T20:13:15.821Z,12.10
2019-05-09T20:15:49.033Z,12.01
2019-05-09T20:18:22.248Z,11.98
2019-05-09T20:20:55.470Z,11.97
2019-05-09T20:23:28.512Z,11.97
2019-05-09T20:26:01.712Z,11.95
2019-05-09T20:28:34.791Z,11.91
2019-05-09T20:31:07.903Z,11.89
2019-05-09T20:33:41.249Z,11.88
2019-05-09T20:36:14.416Z,11.80
2019-05-09T20:38:48.070Z,11.74
2019-05-09T20:41:21.492Z,11.72
2019-05-09T20:43:54.828Z,11.60
2019-05-09T20:46:28.361Z,11.60
2019-05-09T20:49:01.994Z,11.61
2019-05-09T20:51:35.472Z,11.53
2019-05-09T20:54:20.458Z,11.40
2019-05-09T20:56:49.854Z,11.21
2019-05-09T20:59:26.313Z,11.13
2019-05-09T21:02:02.106Z,11.09
2019-05-09T21:04:35.851Z,11.09
2019-05-09T21:07:09.494Z,11.13
2019-05-09T21:09:43.177Z,11.16
2019-05-09T21:12:18.629Z,11.20
2019-05-09T21:14:55.568Z,11.10
2019-05-09T21:17:30.601Z,11.02
2019-05-09T21:20:05.102Z,11.00
2019-05-09T21:22:44.365Z,11.02
2019-05-09T21:25:19.052Z,11.01
2019-05-09T21:27:52.928Z,10.97
2019-05-09T21:30:26.933Z,10.84
2019-05-09T21:33:00.849Z,10.80
2019-05-09T21:35:35.001Z,10.81
2019-05-09T21:38:09.267Z,10.83
2019-05-09T21:40:43.873Z,10.71
2019-05-09T21:43:17.362Z,10.67
2019-05-09T21:45:51.102Z,10.58
2019-05-09T21:48:27.483Z,10.59
2019-05-09T21:51:01.772Z,10.60
2019-05-09T21:53:41.081Z,10.60
2019-05-09T21:56:11.399Z,10.60
2019-05-09T21:58:44.852Z,10.58
2019-05-09T22:01:20.597Z,10.61
2019-05-09T22:03:55.193Z,10.52
2019-05-09T22:06:28.578Z,10.49
2019-05-09T22:09:01.920Z,10.52
2019-05-09T22:11:35.427Z,10.51
2019-05-09T22:14:08.898Z,10.54
2019-05-09T22:16:43.034Z,10.56
2019-05-09T22:19:16.401Z,10.45
2019-05-09T22:21:49.885Z,10.39
2019-05-09T22:24:23.278Z,10.37
2019-05-09T22:26:56.662Z,10.38
2019-05-09T22:29:30.089Z,10.34
2019-05-09T22:32:03.487Z,10.33
2019-05-09T22:34:36.912Z,10.29
2019-05-09T22:37:10.403Z,10.24
2019-05-09T22:39:43.879Z,10.19
2019-05-09T22:42:18.076Z,10.18
2019-05-09T22:44:51.539Z,10.19
2019-05-09T22:47:25.947Z,10.18
2019-05-09T22:49:59.418Z,10.20
2019-05-09T22:52:32.964Z,10.22
2019-05-09T22:55:07.560Z,10.18
2019-05-09T22:57:41.097Z,10.11
2019-05-09T23:00:14.865Z,10.07
2019-05-09T23:02:50.932Z,10.11
2019-05-09T23:05:25.996Z,10.14
2019-05-09T23:07:59.491Z,10.12
2019-05-09T23:10:33.332Z,10.09
2019-05-09T23:13:07.149Z,10.09
2019-05-09T23:15:40.641Z,10.07
2019-05-09T23:18:14.177Z,9.98
2019-05-09T23:20:53.422Z,9.99
2019-05-09T23:23:39.277Z,9.99
2019-05-09T23:26:15.649Z,9.98
2019-05-09T23:28:49.144Z,9.95
2019-05-09T23:31:36.549Z,9.95
2019-05-09T23:34:15.054Z,9.85
2019-05-09T23:36:49.048Z,9.86
2019-05-09T23:39:24.975Z,9.85
2019-05-09T23:41:58.510Z,9.82
2019-05-09T23:44:32.037Z,9.62
2019-05-09T23:47:06.553Z,9.59
2019-05-09T23:49:40.723Z,9.63
2019-05-09T23:52:14.338Z,9.61
2019-05-09T23:58:36.163Z,9.68
